sensor_id;sensor_type;location;lat;lon;timestamp;P1;durP1;ratioP1;P2;durP2;ratioP2
5876;SDS011;2964;42.144;24.730;2022-12-13T00:01:37;3.13;;;3.03;;
5876;SDS011;2964;42.144;24.730;2022-12-13T00:04:04;4.00;;;3.80;;
5876;SDS011;2964;42.144;24.730;2022-12-13T00:06:32;3.47;;;3.10;;
5876;SDS011;2964;42.144;24.730;2022-12-13T00:09:00;3.30;;;3.20;;
5876;SDS011;2964;42.144;24.730;2022-12-13T00:11:28;3.50;;;3.40;;
5876;SDS011;2964;42.144;24.730;2022-12-13T00:13:55;4.27;;;4.10;;
5876;SDS011;2964;42.144;24.730;2022-12-13T00:16:23;3.43;;;3.33;;
5876;SDS011;2964;42.144;24.730;2022-12-13T00:18:53;4.23;;;4.03;;
5876;SDS011;2964;42.144;24.730;2022-12-13T00:21:22;4.53;;;4.33;;
5876;SDS011;2964;42.144;24.730;2022-12-13T00:23:50;4.77;;;4.57;;
5876;SDS011;2964;42.144;24.730;2022-12-13T00:26:18;4.53;;;4.33;;
5876;SDS011;2964;42.144;24.730;2022-12-13T00:28:46;4.53;;;4.33;;
5876;SDS011;2964;42.144;24.730;2022-12-13T00:31:15;4.70;;;4.33;;
5876;SDS011;2964;42.144;24.730;2022-12-13T00:33:44;4.50;;;4.20;;
5876;SDS011;2964;42.144;24.730;2022-12-13T00:36:11;4.30;;;4.17;;
5876;SDS011;2964;42.144;24.730;2022-12-13T00:38:38;6.40;;;4.53;;
5876;SDS011;2964;42.144;24.730;2022-12-13T00:41:12;4.83;;;4.43;;
5876;SDS011;2964;42.144;24.730;2022-12-13T00:43:40;4.47;;;4.27;;
5876;SDS011;2964;42.144;24.730;2022-12-13T00:46:07;4.80;;;4.70;;
5876;SDS011;2964;42.144;24.730;2022-12-13T00:48:38;4.07;;;3.97;;
5876;SDS011;2964;42.144;24.730;2022-12-13T00:51:07;4.60;;;4.40;;
5876;SDS011;2964;42.144;24.730;2022-12-13T00:53:35;4.23;;;4.03;;
5876;SDS011;2964;42.144;24.730;2022-12-13T00:56:02;4.70;;;4.50;;
5876;SDS011;2964;42.144;24.730;2022-12-13T00:58:28;4.20;;;4.00;;
5876;SDS011;2964;42.144;24.730;2022-12-13T01:01:01;4.10;;;4.00;;
5876;SDS011;2964;42.144;24.730;2022-12-13T01:03:29;3.87;;;3.77;;
5876;SDS011;2964;42.144;24.730;2022-12-13T01:05:55;3.83;;;3.73;;
5876;SDS011;2964;42.144;24.730;2022-12-13T01:08:24;4.50;;;4.30;;
5876;SDS011;2964;42.144;24.730;2022-12-13T01:10:52;4.20;;;4.10;;
5876;SDS011;2964;42.144;24.730;2022-12-13T01:13:19;4.00;;;3.90;;
5876;SDS011;2964;42.144;24.730;2022-12-13T01:15:46;4.47;;;4.17;;
5876;SDS011;2964;42.144;24.730;2022-12-13T01:18:13;4.40;;;4.20;;
5876;SDS011;2964;42.144;24.730;2022-12-13T01:20:42;4.40;;;4.20;;
5876;SDS011;2964;42.144;24.730;2022-12-13T01:23:10;4.83;;;4.13;;
5876;SDS011;2964;42.144;24.730;2022-12-13T01:25:38;4.23;;;4.03;;
5876;SDS011;2964;42.144;24.730;2022-12-13T01:28:04;4.77;;;4.57;;
5876;SDS011;2964;42.144;24.730;2022-12-13T01:30:31;4.93;;;4.63;;
5876;SDS011;2964;42.144;24.730;2022-12-13T01:32:57;4.10;;;4.00;;
5876;SDS011;2964;42.144;24.730;2022-12-13T01:35:24;4.13;;;4.03;;
5876;SDS011;2964;42.144;24.730;2022-12-13T01:37:51;4.57;;;4.37;;
5876;SDS011;2964;42.144;24.730;2022-12-13T01:40:17;4.90;;;4.70;;
5876;SDS011;2964;42.144;24.730;2022-12-13T01:42:45;4.67;;;4.37;;
5876;SDS011;2964;42.144;24.730;2022-12-13T01:45:19;4.43;;;4.23;;
5876;SDS011;2964;42.144;24.730;2022-12-13T01:47:50;4.63;;;4.43;;
5876;SDS011;2964;42.144;24.730;2022-12-13T01:50:20;4.93;;;4.73;;
5876;SDS011;2964;42.144;24.730;2022-12-13T01:52:50;5.00;;;4.80;;
5876;SDS011;2964;42.144;24.730;2022-12-13T01:55:19;5.13;;;4.93;;
5876;SDS011;2964;42.144;24.730;2022-12-13T01:57:50;4.80;;;4.60;;
5876;SDS011;2964;42.144;24.730;2022-12-13T02:00:20;4.57;;;4.37;;
5876;SDS011;2964;42.144;24.730;2022-12-13T02:02:47;4.87;;;4.67;;
5876;SDS011;2964;42.144;24.730;2022-12-13T02:05:15;4.60;;;4.40;;
5876;SDS011;2964;42.144;24.730;2022-12-13T02:07:47;5.13;;;4.77;;
5876;SDS011;2964;42.144;24.730;2022-12-13T02:10:15;4.40;;;4.20;;
5876;SDS011;2964;42.144;24.730;2022-12-13T02:12:43;4.83;;;4.63;;
5876;SDS011;2964;42.144;24.730;2022-12-13T02:15:12;4.47;;;4.27;;
5876;SDS011;2964;42.144;24.730;2022-12-13T02:17:51;4.60;;;4.40;;
5876;SDS011;2964;42.144;24.730;2022-12-13T02:20:42;4.63;;;4.43;;
5876;SDS011;2964;42.144;24.730;2022-12-13T02:26:59;5.60;;;5.30;;
5876;SDS011;2964;42.144;24.730;2022-12-13T02:32:38;4.93;;;4.73;;
5876;SDS011;2964;42.144;24.730;2022-12-13T02:35:09;5.63;;;5.33;;
5876;SDS011;2964;42.144;24.730;2022-12-13T02:37:46;5.60;;;5.30;;
5876;SDS011;2964;42.144;24.730;2022-12-13T02:40:20;4.83;;;4.63;;
5876;SDS011;2964;42.144;24.730;2022-12-13T02:42:53;5.23;;;4.73;;
5876;SDS011;2964;42.144;24.730;2022-12-13T02:45:27;5.37;;;5.07;;
5876;SDS011;2964;42.144;24.730;2022-12-13T02:47:57;5.23;;;5.03;;
5876;SDS011;2964;42.144;24.730;2022-12-13T02:50:26;5.70;;;5.40;;
5876;SDS011;2964;42.144;24.730;2022-12-13T02:52:55;6.00;;;5.70;;
5876;SDS011;2964;42.144;24.730;2022-12-13T02:55:23;5.93;;;5.63;;
5876;SDS011;2964;42.144;24.730;2022-12-13T02:57:50;5.60;;;5.20;;
5876;SDS011;2964;42.144;24.730;2022-12-13T03:00:18;5.50;;;5.20;;
5876;SDS011;2964;42.144;24.730;2022-12-13T03:03:00;4.93;;;4.63;;
5876;SDS011;2964;42.144;24.730;2022-12-13T03:05:40;4.93;;;4.73;;
5876;SDS011;2964;42.144;24.730;2022-12-13T03:08:29;5.13;;;4.90;;
5876;SDS011;2964;42.144;24.730;2022-12-13T03:11:05;5.50;;;5.20;;
5876;SDS011;2964;42.144;24.730;2022-12-13T03:13:38;5.17;;;4.87;;
5876;SDS011;2964;42.144;24.730;2022-12-13T03:16:18;5.17;;;4.97;;
5876;SDS011;2964;42.144;24.730;2022-12-13T03:18:52;5.40;;;5.10;;
5876;SDS011;2964;42.144;24.730;2022-12-13T03:21:22;5.57;;;5.27;;
5876;SDS011;2964;42.144;24.730;2022-12-13T03:23:50;5.90;;;5.60;;
5876;SDS011;2964;42.144;24.730;2022-12-13T03:26:17;5.17;;;4.87;;
5876;SDS011;2964;42.144;24.730;2022-12-13T03:28:46;5.53;;;5.23;;
5876;SDS011;2964;42.144;24.730;2022-12-13T03:31:13;5.77;;;5.37;;
5876;SDS011;2964;42.144;24.730;2022-12-13T03:33:40;4.80;;;4.60;;
5876;SDS011;2964;42.144;24.730;2022-12-13T03:36:08;5.70;;;5.40;;
5876;SDS011;2964;42.144;24.730;2022-12-13T03:38:36;5.10;;;4.90;;
5876;SDS011;2964;42.144;24.730;2022-12-13T03:41:05;5.23;;;4.93;;
5876;SDS011;2964;42.144;24.730;2022-12-13T03:43:34;5.17;;;4.90;;
5876;SDS011;2964;42.144;24.730;2022-12-13T03:46:00;5.53;;;5.23;;
5876;SDS011;2964;42.144;24.730;2022-12-13T03:48:27;5.53;;;5.23;;
5876;SDS011;2964;42.144;24.730;2022-12-13T03:50:54;5.57;;;5.30;;
5876;SDS011;2964;42.144;24.730;2022-12-13T03:53:23;5.73;;;5.43;;
5876;SDS011;2964;42.144;24.730;2022-12-13T03:55:50;5.43;;;5.13;;
5876;SDS011;2964;42.144;24.730;2022-12-13T03:58:17;5.40;;;5.10;;
5876;SDS011;2964;42.144;24.730;2022-12-13T04:00:43;5.73;;;5.43;;
5876;SDS011;2964;42.144;24.730;2022-12-13T04:03:10;5.23;;;4.83;;
5876;SDS011;2964;42.144;24.730;2022-12-13T04:05:37;4.90;;;4.70;;
5876;SDS011;2964;42.144;24.730;2022-12-13T04:08:04;5.93;;;5.63;;
5876;SDS011;2964;42.144;24.730;2022-12-13T04:10:32;6.30;;;6.00;;
5876;SDS011;2964;42.144;24.730;2022-12-13T04:13:00;5.70;;;5.40;;
5876;SDS011;2964;42.144;24.730;2022-12-13T04:15:44;5.73;;;5.43;;
5876;SDS011;2964;42.144;24.730;2022-12-13T04:18:14;5.60;;;5.30;;
5876;SDS011;2964;42.144;24.730;2022-12-13T04:20:41;5.20;;;4.90;;
5876;SDS011;2964;42.144;24.730;2022-12-13T04:23:08;4.97;;;4.77;;
5876;SDS011;2964;42.144;24.730;2022-12-13T04:25:36;4.80;;;4.53;;
5876;SDS011;2964;42.144;24.730;2022-12-13T04:28:03;5.40;;;5.10;;
5876;SDS011;2964;42.144;24.730;2022-12-13T04:30:31;5.20;;;5.00;;
5876;SDS011;2964;42.144;24.730;2022-12-13T04:32:58;5.07;;;4.87;;
5876;SDS011;2964;42.144;24.730;2022-12-13T04:35:25;5.33;;;4.97;;
5876;SDS011;2964;42.144;24.730;2022-12-13T04:37:53;5.57;;;5.27;;
5876;SDS011;2964;42.144;24.730;2022-12-13T04:40:21;5.80;;;5.40;;
5876;SDS011;2964;42.144;24.730;2022-12-13T04:42:49;5.97;;;5.67;;
5876;SDS011;2964;42.144;24.730;2022-12-13T04:45:16;5.67;;;5.37;;
5876;SDS011;2964;42.144;24.730;2022-12-13T04:47:43;5.27;;;4.87;;
5876;SDS011;2964;42.144;24.730;2022-12-13T04:50:10;6.20;;;5.83;;
5876;SDS011;2964;42.144;24.730;2022-12-13T04:52:37;6.23;;;5.73;;
5876;SDS011;2964;42.144;24.730;2022-12-13T04:55:04;5.90;;;5.60;;
5876;SDS011;2964;42.144;24.730;2022-12-13T04:57:33;5.73;;;5.43;;
5876;SDS011;2964;42.144;24.730;2022-12-13T05:00:01;6.27;;;5.80;;
5876;SDS011;2964;42.144;24.730;2022-12-13T05:02:28;6.17;;;5.63;;
5876;SDS011;2964;42.144;24.730;2022-12-13T05:04:55;6.00;;;5.70;;
5876;SDS011;2964;42.144;24.730;2022-12-13T05:07:22;6.13;;;5.83;;
5876;SDS011;2964;42.144;24.730;2022-12-13T05:09:50;6.20;;;5.90;;
5876;SDS011;2964;42.144;24.730;2022-12-13T05:12:17;6.13;;;5.73;;
5876;SDS011;2964;42.144;24.730;2022-12-13T05:14:44;5.90;;;5.60;;
5876;SDS011;2964;42.144;24.730;2022-12-13T05:17:12;6.33;;;5.93;;
5876;SDS011;2964;42.144;24.730;2022-12-13T05:19:39;6.20;;;5.70;;
5876;SDS011;2964;42.144;24.730;2022-12-13T05:22:05;5.87;;;5.57;;
5876;SDS011;2964;42.144;24.730;2022-12-13T05:24:39;5.50;;;5.20;;
5876;SDS011;2964;42.144;24.730;2022-12-13T05:27:06;5.40;;;5.10;;
5876;SDS011;2964;42.144;24.730;2022-12-13T05:29:33;5.87;;;5.57;;
5876;SDS011;2964;42.144;24.730;2022-12-13T05:32:00;6.13;;;5.73;;
5876;SDS011;2964;42.144;24.730;2022-12-13T05:34:28;6.30;;;5.80;;
5876;SDS011;2964;42.144;24.730;2022-12-13T05:36:55;6.23;;;5.83;;
5876;SDS011;2964;42.144;24.730;2022-12-13T05:39:21;6.50;;;6.20;;
5876;SDS011;2964;42.144;24.730;2022-12-13T05:41:48;6.70;;;6.00;;
5876;SDS011;2964;42.144;24.730;2022-12-13T05:44:15;6.07;;;5.77;;
5876;SDS011;2964;42.144;24.730;2022-12-13T05:46:42;9.37;;;6.50;;
5876;SDS011;2964;42.144;24.730;2022-12-13T05:49:08;6.20;;;5.80;;
5876;SDS011;2964;42.144;24.730;2022-12-13T05:51:36;6.93;;;6.43;;
5876;SDS011;2964;42.144;24.730;2022-12-13T05:54:03;7.43;;;7.00;;
5876;SDS011;2964;42.144;24.730;2022-12-13T05:56:30;62.70;;;45.70;;
5876;SDS011;2964;42.144;24.730;2022-12-13T05:58:56;92.30;;;21.40;;
5876;SDS011;2964;42.144;24.730;2022-12-13T06:01:24;8.40;;;7.70;;
5876;SDS011;2964;42.144;24.730;2022-12-13T06:03:51;8.97;;;8.17;;
5876;SDS011;2964;42.144;24.730;2022-12-13T06:06:17;9.10;;;8.30;;
5876;SDS011;2964;42.144;24.730;2022-12-13T06:08:46;10.40;;;9.07;;
5876;SDS011;2964;42.144;24.730;2022-12-13T06:11:13;10.80;;;8.97;;
5876;SDS011;2964;42.144;24.730;2022-12-13T06:13:40;9.00;;;8.20;;
5876;SDS011;2964;42.144;24.730;2022-12-13T06:16:08;8.43;;;7.70;;
5876;SDS011;2964;42.144;24.730;2022-12-13T06:18:36;10.43;;;8.70;;
5876;SDS011;2964;42.144;24.730;2022-12-13T06:21:03;9.13;;;8.33;;
5876;SDS011;2964;42.144;24.730;2022-12-13T06:23:32;9.47;;;8.50;;
5876;SDS011;2964;42.144;24.730;2022-12-13T06:26:02;10.27;;;9.23;;
5876;SDS011;2964;42.144;24.730;2022-12-13T06:28:30;9.40;;;8.50;;
5876;SDS011;2964;42.144;24.730;2022-12-13T06:30:58;8.10;;;7.53;;
5876;SDS011;2964;42.144;24.730;2022-12-13T06:33:25;7.87;;;6.90;;
5876;SDS011;2964;42.144;24.730;2022-12-13T06:35:55;7.70;;;7.10;;
5876;SDS011;2964;42.144;24.730;2022-12-13T06:38:23;8.23;;;7.70;;
5876;SDS011;2964;42.144;24.730;2022-12-13T06:40:50;8.57;;;7.77;;
5876;SDS011;2964;42.144;24.730;2022-12-13T06:43:18;8.97;;;8.03;;
5876;SDS011;2964;42.144;24.730;2022-12-13T06:45:45;8.23;;;7.53;;
5876;SDS011;2964;42.144;24.730;2022-12-13T06:48:12;8.63;;;7.83;;
5876;SDS011;2964;42.144;24.730;2022-12-13T06:50:39;8.37;;;7.70;;
5876;SDS011;2964;42.144;24.730;2022-12-13T06:53:06;7.63;;;6.97;;
5876;SDS011;2964;42.144;24.730;2022-12-13T06:55:33;10.23;;;9.13;;
5876;SDS011;2964;42.144;24.730;2022-12-13T06:58:00;8.83;;;8.03;;
5876;SDS011;2964;42.144;24.730;2022-12-13T07:00:29;8.83;;;8.03;;
5876;SDS011;2964;42.144;24.730;2022-12-13T07:02:56;9.80;;;7.57;;
5876;SDS011;2964;42.144;24.730;2022-12-13T07:05:22;9.57;;;7.87;;
5876;SDS011;2964;42.144;24.730;2022-12-13T07:07:51;8.60;;;7.93;;
5876;SDS011;2964;42.144;24.730;2022-12-13T07:10:18;9.17;;;8.27;;
5876;SDS011;2964;42.144;24.730;2022-12-13T07:12:45;8.17;;;7.57;;
5876;SDS011;2964;42.144;24.730;2022-12-13T07:15:12;8.03;;;7.30;;
5876;SDS011;2964;42.144;24.730;2022-12-13T07:17:40;8.73;;;8.00;;
5876;SDS011;2964;42.144;24.730;2022-12-13T07:20:08;8.97;;;8.17;;
5876;SDS011;2964;42.144;24.730;2022-12-13T07:22:36;7.60;;;7.10;;
5876;SDS011;2964;42.144;24.730;2022-12-13T07:25:03;8.47;;;7.67;;
5876;SDS011;2964;42.144;24.730;2022-12-13T07:27:31;8.27;;;7.57;;
5876;SDS011;2964;42.144;24.730;2022-12-13T07:29:58;8.20;;;7.33;;
5876;SDS011;2964;42.144;24.730;2022-12-13T07:32:24;9.57;;;8.77;;
5876;SDS011;2964;42.144;24.730;2022-12-13T07:34:53;8.20;;;7.50;;
5876;SDS011;2964;42.144;24.730;2022-12-13T07:37:19;7.70;;;7.10;;
5876;SDS011;2964;42.144;24.730;2022-12-13T07:39:46;9.83;;;8.83;;
5876;SDS011;2964;42.144;24.730;2022-12-13T07:42:13;8.50;;;7.60;;
5876;SDS011;2964;42.144;24.730;2022-12-13T07:44:40;9.27;;;8.57;;
5876;SDS011;2964;42.144;24.730;2022-12-13T07:47:06;8.83;;;7.73;;
5876;SDS011;2964;42.144;24.730;2022-12-13T07:49:33;10.43;;;8.10;;
5876;SDS011;2964;42.144;24.730;2022-12-13T07:52:01;8.93;;;7.17;;
5876;SDS011;2964;42.144;24.730;2022-12-13T07:54:28;9.30;;;8.00;;
5876;SDS011;2964;42.144;24.730;2022-12-13T07:56:55;11.00;;;8.77;;
5876;SDS011;2964;42.144;24.730;2022-12-13T07:59:21;8.97;;;8.27;;
5876;SDS011;2964;42.144;24.730;2022-12-13T08:01:48;9.47;;;8.63;;
5876;SDS011;2964;42.144;24.730;2022-12-13T08:04:15;9.03;;;7.57;;
5876;SDS011;2964;42.144;24.730;2022-12-13T08:06:42;8.50;;;7.90;;
5876;SDS011;2964;42.144;24.730;2022-12-13T08:09:10;8.40;;;7.47;;
5876;SDS011;2964;42.144;24.730;2022-12-13T08:11:36;8.93;;;7.83;;
5876;SDS011;2964;42.144;24.730;2022-12-13T08:14:04;8.70;;;7.87;;
5876;SDS011;2964;42.144;24.730;2022-12-13T08:16:31;8.33;;;7.73;;
5876;SDS011;2964;42.144;24.730;2022-12-13T08:18:58;8.80;;;8.13;;
5876;SDS011;2964;42.144;24.730;2022-12-13T08:21:25;9.97;;;7.17;;
5876;SDS011;2964;42.144;24.730;2022-12-13T08:23:52;8.70;;;7.90;;
5876;SDS011;2964;42.144;24.730;2022-12-13T08:26:21;8.90;;;8.07;;
5876;SDS011;2964;42.144;24.730;2022-12-13T08:28:48;8.87;;;8.00;;
5876;SDS011;2964;42.144;24.730;2022-12-13T08:31:14;9.10;;;8.45;;
5876;SDS011;2964;42.144;24.730;2022-12-13T08:33:41;8.03;;;7.50;;
5876;SDS011;2964;42.144;24.730;2022-12-13T08:36:11;7.60;;;7.10;;
5876;SDS011;2964;42.144;24.730;2022-12-13T08:38:42;8.13;;;7.53;;
5876;SDS011;2964;42.144;24.730;2022-12-13T08:41:08;8.33;;;7.73;;
5876;SDS011;2964;42.144;24.730;2022-12-13T08:43:37;9.33;;;8.53;;
5876;SDS011;2964;42.144;24.730;2022-12-13T08:46:04;9.27;;;8.47;;
5876;SDS011;2964;42.144;24.730;2022-12-13T08:48:32;7.67;;;7.07;;
5876;SDS011;2964;42.144;24.730;2022-12-13T08:50:59;7.90;;;7.40;;
5876;SDS011;2964;42.144;24.730;2022-12-13T08:53:27;8.30;;;7.50;;
5876;SDS011;2964;42.144;24.730;2022-12-13T08:55:58;8.40;;;7.90;;
5876;SDS011;2964;42.144;24.730;2022-12-13T08:58:25;8.50;;;7.77;;
5876;SDS011;2964;42.144;24.730;2022-12-13T09:00:53;10.63;;;7.73;;
5876;SDS011;2964;42.144;24.730;2022-12-13T09:03:20;9.17;;;8.33;;
5876;SDS011;2964;42.144;24.730;2022-12-13T09:05:47;8.77;;;7.97;;
5876;SDS011;2964;42.144;24.730;2022-12-13T09:08:14;7.93;;;7.40;;
5876;SDS011;2964;42.144;24.730;2022-12-13T09:10:40;8.30;;;7.53;;
5876;SDS011;2964;42.144;24.730;2022-12-13T09:13:07;9.37;;;7.60;;
5876;SDS011;2964;42.144;24.730;2022-12-13T09:15:37;8.37;;;7.67;;
5876;SDS011;2964;42.144;24.730;2022-12-13T09:18:06;8.70;;;7.70;;
5876;SDS011;2964;42.144;24.730;2022-12-13T09:20:32;9.60;;;8.63;;
5876;SDS011;2964;42.144;24.730;2022-12-13T09:23:01;9.83;;;8.97;;
5876;SDS011;2964;42.144;24.730;2022-12-13T09:25:30;9.80;;;9.00;;
5876;SDS011;2964;42.144;24.730;2022-12-13T09:27:57;9.37;;;8.57;;
5876;SDS011;2964;42.144;24.730;2022-12-13T09:30:25;8.80;;;8.20;;
5876;SDS011;2964;42.144;24.730;2022-12-13T09:32:54;11.00;;;10.03;;
5876;SDS011;2964;42.144;24.730;2022-12-13T09:35:26;8.47;;;7.80;;
5876;SDS011;2964;42.144;24.730;2022-12-13T09:38:00;10.27;;;9.27;;
5876;SDS011;2964;42.144;24.730;2022-12-13T09:40:56;16.23;;;9.60;;
5876;SDS011;2964;42.144;24.730;2022-12-13T09:43:30;9.13;;;8.33;;
5876;SDS011;2964;42.144;24.730;2022-12-13T09:46:00;11.07;;;9.83;;
5876;SDS011;2964;42.144;24.730;2022-12-13T09:48:34;10.07;;;8.37;;
5876;SDS011;2964;42.144;24.730;2022-12-13T09:51:10;11.23;;;8.73;;
5876;SDS011;2964;42.144;24.730;2022-12-13T09:53:52;10.90;;;9.73;;
5876;SDS011;2964;42.144;24.730;2022-12-13T09:56:20;9.97;;;8.93;;
5876;SDS011;2964;42.144;24.730;2022-12-13T09:58:48;9.47;;;8.60;;
5876;SDS011;2964;42.144;24.730;2022-12-13T10:01:16;9.43;;;8.50;;
5876;SDS011;2964;42.144;24.730;2022-12-13T10:03:45;10.00;;;9.07;;
5876;SDS011;2964;42.144;24.730;2022-12-13T10:06:15;9.80;;;8.60;;
5876;SDS011;2964;42.144;24.730;2022-12-13T10:08:43;9.30;;;8.50;;
5876;SDS011;2964;42.144;24.730;2022-12-13T10:11:13;9.10;;;7.87;;
5876;SDS011;2964;42.144;24.730;2022-12-13T10:13:41;8.00;;;7.27;;
5876;SDS011;2964;42.144;24.730;2022-12-13T10:16:11;7.77;;;7.07;;
5876;SDS011;2964;42.144;24.730;2022-12-13T10:18:41;8.80;;;7.47;;
5876;SDS011;2964;42.144;24.730;2022-12-13T10:21:09;8.33;;;7.53;;
5876;SDS011;2964;42.144;24.730;2022-12-13T10:23:40;8.93;;;8.13;;
5876;SDS011;2964;42.144;24.730;2022-12-13T10:26:07;8.70;;;7.90;;
5876;SDS011;2964;42.144;24.730;2022-12-13T10:28:35;8.37;;;7.67;;
5876;SDS011;2964;42.144;24.730;2022-12-13T10:31:02;8.60;;;8.00;;
5876;SDS011;2964;42.144;24.730;2022-12-13T10:33:30;9.27;;;8.43;;
5876;SDS011;2964;42.144;24.730;2022-12-13T10:36:02;9.03;;;8.13;;
5876;SDS011;2964;42.144;24.730;2022-12-13T10:38:33;8.40;;;7.80;;
5876;SDS011;2964;42.144;24.730;2022-12-13T10:41:03;8.77;;;8.07;;
5876;SDS011;2964;42.144;24.730;2022-12-13T10:44:05;8.03;;;7.37;;
5876;SDS011;2964;42.144;24.730;2022-12-13T10:46:47;8.83;;;7.97;;
5876;SDS011;2964;42.144;24.730;2022-12-13T10:49:16;10.63;;;7.73;;
5876;SDS011;2964;42.144;24.730;2022-12-13T10:51:47;8.87;;;8.00;;
5876;SDS011;2964;42.144;24.730;2022-12-13T10:54:18;9.97;;;8.97;;
5876;SDS011;2964;42.144;24.730;2022-12-13T10:56:53;10.53;;;9.73;;
5876;SDS011;2964;42.144;24.730;2022-12-13T10:59:31;12.40;;;10.90;;
5876;SDS011;2964;42.144;24.730;2022-12-13T11:01:59;8.97;;;8.13;;
5876;SDS011;2964;42.144;24.730;2022-12-13T11:04:29;8.63;;;7.93;;
5876;SDS011;2964;42.144;24.730;2022-12-13T11:06:57;9.73;;;8.93;;
5876;SDS011;2964;42.144;24.730;2022-12-13T11:09:27;8.90;;;8.20;;
5876;SDS011;2964;42.144;24.730;2022-12-13T11:11:57;9.00;;;8.30;;
5876;SDS011;2964;42.144;24.730;2022-12-13T11:14:27;9.80;;;9.10;;
5876;SDS011;2964;42.144;24.730;2022-12-13T11:16:58;9.43;;;8.73;;
5876;SDS011;2964;42.144;24.730;2022-12-13T11:19:33;12.63;;;11.60;;
5876;SDS011;2964;42.144;24.730;2022-12-13T11:22:04;10.47;;;9.30;;
5876;SDS011;2964;42.144;24.730;2022-12-13T11:24:33;9.03;;;8.27;;
5876;SDS011;2964;42.144;24.730;2022-12-13T11:27:04;10.17;;;8.47;;
5876;SDS011;2964;42.144;24.730;2022-12-13T11:29:50;8.47;;;7.87;;
5876;SDS011;2964;42.144;24.730;2022-12-13T11:32:32;9.03;;;8.07;;
5876;SDS011;2964;42.144;24.730;2022-12-13T11:35:12;8.53;;;7.73;;
5876;SDS011;2964;42.144;24.730;2022-12-13T11:37:44;8.87;;;7.73;;
5876;SDS011;2964;42.144;24.730;2022-12-13T11:40:18;8.80;;;8.20;;
5876;SDS011;2964;42.144;24.730;2022-12-13T11:42:50;8.87;;;8.20;;
5876;SDS011;2964;42.144;24.730;2022-12-13T11:45:21;8.30;;;7.60;;
5876;SDS011;2964;42.144;24.730;2022-12-13T11:47:54;8.33;;;7.73;;
5876;SDS011;2964;42.144;24.730;2022-12-13T11:50:28;7.90;;;7.30;;
5876;SDS011;2964;42.144;24.730;2022-12-13T11:53:04;7.80;;;7.30;;
5876;SDS011;2964;42.144;24.730;2022-12-13T11:55:45;7.53;;;7.03;;
5876;SDS011;2964;42.144;24.730;2022-12-13T11:58:18;9.17;;;8.30;;
5876;SDS011;2964;42.144;24.730;2022-12-13T12:00:51;8.83;;;8.03;;
5876;SDS011;2964;42.144;24.730;2022-12-13T12:03:26;9.07;;;8.17;;
5876;SDS011;2964;42.144;24.730;2022-12-13T12:06:01;8.70;;;8.00;;
5876;SDS011;2964;42.144;24.730;2022-12-13T12:08:34;10.80;;;8.77;;
5876;SDS011;2964;42.144;24.730;2022-12-13T12:11:08;8.87;;;8.17;;
5876;SDS011;2964;42.144;24.730;2022-12-13T12:13:44;8.60;;;7.87;;
5876;SDS011;2964;42.144;24.730;2022-12-13T12:16:16;8.20;;;7.50;;
5876;SDS011;2964;42.144;24.730;2022-12-13T12:18:50;8.00;;;7.37;;
5876;SDS011;2964;42.144;24.730;2022-12-13T12:21:23;7.83;;;7.27;;
5876;SDS011;2964;42.144;24.730;2022-12-13T12:24:01;6.97;;;6.57;;
5876;SDS011;2964;42.144;24.730;2022-12-13T12:26:39;6.93;;;6.43;;
5876;SDS011;2964;42.144;24.730;2022-12-13T12:29:22;7.00;;;6.50;;
5876;SDS011;2964;42.144;24.730;2022-12-13T12:32:08;10.63;;;6.60;;
5876;SDS011;2964;42.144;24.730;2022-12-13T12:34:42;6.73;;;6.23;;
5876;SDS011;2964;42.144;24.730;2022-12-13T12:37:20;7.37;;;6.87;;
5876;SDS011;2964;42.144;24.730;2022-12-13T12:40:06;8.53;;;7.80;;
5876;SDS011;2964;42.144;24.730;2022-12-13T12:42:57;7.37;;;6.87;;
5876;SDS011;2964;42.144;24.730;2022-12-13T12:45:36;8.00;;;7.33;;
5876;SDS011;2964;42.144;24.730;2022-12-13T12:48:20;7.70;;;7.00;;
5876;SDS011;2964;42.144;24.730;2022-12-13T12:51:03;8.20;;;7.50;;
5876;SDS011;2964;42.144;24.730;2022-12-13T12:53:37;8.13;;;7.60;;
5876;SDS011;2964;42.144;24.730;2022-12-13T12:56:22;7.87;;;7.27;;
5876;SDS011;2964;42.144;24.730;2022-12-13T12:59:00;7.83;;;7.23;;
5876;SDS011;2964;42.144;24.730;2022-12-13T13:01:43;7.73;;;7.13;;
5876;SDS011;2964;42.144;24.730;2022-12-13T13:04:18;7.73;;;7.10;;
5876;SDS011;2964;42.144;24.730;2022-12-13T13:06:52;7.77;;;6.97;;
5876;SDS011;2964;42.144;24.730;2022-12-13T13:09:22;8.40;;;7.70;;
5876;SDS011;2964;42.144;24.730;2022-12-13T13:11:49;8.67;;;7.97;;
5876;SDS011;2964;42.144;24.730;2022-12-13T13:14:26;9.03;;;8.13;;
5876;SDS011;2964;42.144;24.730;2022-12-13T13:16:57;8.63;;;7.80;;
5876;SDS011;2964;42.144;24.730;2022-12-13T13:19:40;8.27;;;7.67;;
5876;SDS011;2964;42.144;24.730;2022-12-13T13:22:27;7.93;;;7.37;;
5876;SDS011;2964;42.144;24.730;2022-12-13T13:27:51;8.80;;;7.90;;
5876;SDS011;2964;42.144;24.730;2022-12-13T13:30:27;7.73;;;7.13;;
5876;SDS011;2964;42.144;24.730;2022-12-13T13:32:56;8.27;;;7.67;;
5876;SDS011;2964;42.144;24.730;2022-12-13T13:35:44;9.50;;;8.03;;
5876;SDS011;2964;42.144;24.730;2022-12-13T13:38:25;8.00;;;7.33;;
5876;SDS011;2964;42.144;24.730;2022-12-13T13:40:53;8.77;;;7.77;;
5876;SDS011;2964;42.144;24.730;2022-12-13T13:43:26;9.67;;;7.63;;
5876;SDS011;2964;42.144;24.730;2022-12-13T13:45:57;8.43;;;7.50;;
5876;SDS011;2964;42.144;24.730;2022-12-13T13:48:41;7.87;;;7.07;;
5876;SDS011;2964;42.144;24.730;2022-12-13T13:57:51;8.63;;;7.87;;
5876;SDS011;2964;42.144;24.730;2022-12-13T14:00:46;9.00;;;8.13;;
5876;SDS011;2964;42.144;24.730;2022-12-13T14:07:03;12.50;;;8.13;;
5876;SDS011;2964;42.144;24.730;2022-12-13T14:10:11;8.70;;;8.00;;
5876;SDS011;2964;42.144;24.730;2022-12-13T14:12:56;9.73;;;8.23;;
5876;SDS011;2964;42.144;24.730;2022-12-13T14:16:11;9.90;;;8.20;;
5876;SDS011;2964;42.144;24.730;2022-12-13T14:19:31;10.00;;;8.70;;
5876;SDS011;2964;42.144;24.730;2022-12-13T14:22:21;15.30;;;9.83;;
5876;SDS011;2964;42.144;24.730;2022-12-13T14:25:13;17.40;;;11.53;;
5876;SDS011;2964;42.144;24.730;2022-12-13T14:28:08;19.07;;;11.27;;
5876;SDS011;2964;42.144;24.730;2022-12-13T14:30:50;10.23;;;8.63;;
5876;SDS011;2964;42.144;24.730;2022-12-13T14:33:20;11.30;;;8.70;;
5876;SDS011;2964;42.144;24.730;2022-12-13T14:35:50;11.40;;;8.33;;
5876;SDS011;2964;42.144;24.730;2022-12-13T14:38:19;10.17;;;9.23;;
5876;SDS011;2964;42.144;24.730;2022-12-13T14:40:48;9.83;;;8.77;;
5876;SDS011;2964;42.144;24.730;2022-12-13T14:43:23;10.53;;;9.43;;
5876;SDS011;2964;42.144;24.730;2022-12-13T14:45:52;10.67;;;9.30;;
5876;SDS011;2964;42.144;24.730;2022-12-13T14:48:20;10.97;;;8.83;;
5876;SDS011;2964;42.144;24.730;2022-12-13T14:50:47;11.27;;;8.67;;
5876;SDS011;2964;42.144;24.730;2022-12-13T14:53:26;10.27;;;8.70;;
5876;SDS011;2964;42.144;24.730;2022-12-13T14:56:06;14.13;;;10.17;;
5876;SDS011;2964;42.144;24.730;2022-12-13T14:58:35;19.00;;;9.90;;
5876;SDS011;2964;42.144;24.730;2022-12-13T15:01:02;12.70;;;9.93;;
5876;SDS011;2964;42.144;24.730;2022-12-13T15:03:30;11.60;;;9.17;;
5876;SDS011;2964;42.144;24.730;2022-12-13T15:06:02;14.17;;;9.43;;
5876;SDS011;2964;42.144;24.730;2022-12-13T15:08:31;18.60;;;10.30;;
5876;SDS011;2964;42.144;24.730;2022-12-13T15:11:00;12.37;;;11.03;;
5876;SDS011;2964;42.144;24.730;2022-12-13T15:13:28;17.33;;;12.53;;
5876;SDS011;2964;42.144;24.730;2022-12-13T15:16:01;19.10;;;10.33;;
5876;SDS011;2964;42.144;24.730;2022-12-13T15:18:34;30.37;;;12.50;;
5876;SDS011;2964;42.144;24.730;2022-12-13T15:21:01;22.10;;;14.10;;
5876;SDS011;2964;42.144;24.730;2022-12-13T15:23:28;21.63;;;13.87;;
5876;SDS011;2964;42.144;24.730;2022-12-13T15:25:59;25.67;;;17.50;;
5876;SDS011;2964;42.144;24.730;2022-12-13T15:28:30;32.23;;;15.67;;
5876;SDS011;2964;42.144;24.730;2022-12-13T15:30:59;20.93;;;16.20;;
5876;SDS011;2964;42.144;24.730;2022-12-13T15:33:27;29.43;;;16.87;;
5876;SDS011;2964;42.144;24.730;2022-12-13T15:36:02;31.87;;;20.07;;
5876;SDS011;2964;42.144;24.730;2022-12-13T15:38:33;41.27;;;23.10;;
5876;SDS011;2964;42.144;24.730;2022-12-13T15:41:02;15.43;;;13.77;;